Time;durP1;ratioP1;P1;durP2;ratioP2;P2;SDS_P1;SDS_P2;PMS_P1;PMS_P2;Temp;Humidity;BMP_temperature;BMP_pressure;BME280_temperature;BME280_humidity;BME280_pressure;Samples;Min_cycle;Max_cycle;Signal;HPM_P1;HPM_P2
2022/10/22 00:00:15;;;;;;;9.35;6.32;;;;;;;10.68;58.74;98326.41;5069320;28;20018;-72
2022/10/22 00:02:41;;;;;;;8.75;5.97;;;;;;;10.68;58.88;98327.25;5064248;28;20021;-72
2022/10/22 00:05:07;;;;;;;12.05;7.25;;;;;;;10.69;58.61;98328.03;5076494;28;20032;-71
2022/10/22 00:07:33;;;;;;;10.85;7.10;;;;;;;10.65;59.09;98322.34;5088724;28;20047;-72
2022/10/22 00:09:58;;;;;;;14.80;7.57;;;;;;;10.64;58.42;98326.22;5089091;28;20028;-72
2022/10/22 00:12:24;;;;;;;9.13;6.63;;;;;;;10.63;58.77;98326.50;5088720;28;20349;-72
2022/10/22 00:14:49;;;;;;;9.35;6.20;;;;;;;10.63;59.09;98335.56;5057733;28;20470;-72
2022/10/22 00:17:15;;;;;;;9.88;6.15;;;;;;;10.61;59.13;98340.53;5086006;28;20035;-71
2022/10/22 00:19:40;;;;;;;11.38;6.70;;;;;;;10.61;58.92;98339.69;5088861;28;20024;-71
2022/10/22 00:22:07;;;;;;;8.50;6.22;;;;;;;10.59;58.86;98331.78;5088792;28;20035;-73
2022/10/22 00:24:33;;;;;;;10.35;5.60;;;;;;;10.59;58.91;98328.25;5074942;28;20042;-72
2022/10/22 00:26:59;;;;;;;9.60;6.20;;;;;;;10.57;59.09;98331.25;5068434;28;20074;-72
2022/10/22 00:29:24;;;;;;;8.43;6.40;;;;;;;10.57;59.42;98326.63;5080425;28;20052;-72
2022/10/22 00:31:50;;;;;;;8.85;6.00;;;;;;;10.55;59.01;98323.34;5088330;28;20109;-72
2022/10/22 00:34:17;;;;;;;13.02;6.60;;;;;;;10.53;59.31;98327.50;5088344;28;20032;-72
2022/10/22 00:36:43;;;;;;;11.15;6.93;;;;;;;10.52;59.31;98320.38;5088233;28;20031;-72
2022/10/22 00:39:08;;;;;;;11.05;6.75;;;;;;;10.50;58.96;98322.59;5070188;28;20036;-72
2022/10/22 00:41:34;;;;;;;10.32;6.80;;;;;;;10.48;59.52;98308.38;5088068;28;20553;-72
2022/10/22 00:44:02;;;;;;;10.15;7.10;;;;;;;10.45;59.37;98306.22;5069767;28;20032;-72
2022/10/22 00:46:28;;;;;;;14.32;8.68;;;;;;;10.43;59.23;98303.81;5087886;28;20523;-71
2022/10/22 00:48:57;;;;;;;14.25;8.85;;;;;;;10.42;59.50;98297.50;5084707;28;20041;-72
2022/10/22 00:51:27;;;;;;;13.05;7.78;;;;;;;10.39;58.98;98298.09;5070364;28;20482;-71
2022/10/22 00:53:56;;;;;;;9.93;6.35;;;;;;;10.38;59.41;98292.88;5066016;28;20024;-72
2022/10/22 00:56:23;;;;;;;13.82;7.90;;;;;;;10.35;59.98;98290.72;5068142;28;20056;-72
2022/10/22 00:58:52;;;;;;;10.18;6.35;;;;;;;10.33;60.09;98284.72;5067942;28;20432;-72
2022/10/22 01:01:22;;;;;;;8.65;6.53;;;;;;;10.32;59.31;98288.59;5068477;28;20660;-72
2022/10/22 01:03:48;;;;;;;10.20;6.38;;;;;;;10.30;59.63;98288.06;5068276;28;20029;-72
2022/10/22 01:06:21;;;;;;;9.13;6.35;;;;;;;10.27;59.86;98290.28;5067830;28;20406;-72
2022/10/22 01:09:02;;;;;;;14.98;7.10;;;;;;;10.25;60.14;98303.47;5069724;28;20028;-72
2022/10/22 01:11:52;;;;;;;9.48;6.22;;;;;;;10.22;59.93;98293.13;5072732;28;20111;-70
2022/10/22 01:14:28;;;;;;;10.60;7.38;;;;;;;10.22;60.24;98286.84;5054016;28;20081;-70
2022/10/22 01:17:02;;;;;;;11.07;6.65;;;;;;;10.20;60.13;98283.56;5071280;28;20021;-70
2022/10/22 01:19:38;;;;;;;9.10;7.00;;;;;;;10.15;60.02;98289.13;5071956;28;20074;-70
2022/10/22 01:22:13;;;;;;;9.75;6.78;;;;;;;10.12;60.55;98277.66;5072616;28;20017;-70
2022/10/22 01:24:51;;;;;;;9.68;7.20;;;;;;;10.10;60.53;98290.84;5087046;28;20497;-72
2022/10/22 01:27:25;;;;;;;11.52;6.47;;;;;;;10.08;60.23;98282.09;5091238;28;20059;-72
2022/10/22 01:29:55;;;;;;;12.25;6.60;;;;;;;10.10;60.37;98290.03;5066920;28;20669;-72
2022/10/22 01:32:24;;;;;;;9.48;6.93;;;;;;;10.08;61.19;98286.78;5076174;28;20040;-72
2022/10/22 01:34:59;;;;;;;10.88;6.28;;;;;;;10.08;60.53;98287.56;5090560;28;20383;-72
2022/10/22 01:37:29;;;;;;;11.35;6.82;;;;;;;10.09;60.34;98289.19;5091544;28;20016;-72
2022/10/22 01:40:00;;;;;;;10.85;6.60;;;;;;;10.10;60.41;98279.88;5091095;28;20443;-72
2022/10/22 01:42:25;;;;;;;8.93;6.10;;;;;;;10.10;60.97;98279.06;5091575;28;20476;-72
2022/10/22 01:44:50;;;;;;;10.30;6.60;;;;;;;10.10;60.51;98273.59;5091241;28;20028;-71
2022/10/22 01:47:21;;;;;;;10.80;6.70;;;;;;;10.11;60.50;98270.53;5091867;28;20549;-72
2022/10/22 01:50:08;;;;;;;10.68;6.93;;;;;;;10.15;60.35;98265.28;5091946;28;20110;-72
2022/10/22 01:52:44;;;;;;;11.40;6.68;;;;;;;10.16;60.73;98261.44;5091134;28;20028;-72
2022/10/22 01:55:13;;;;;;;11.70;6.88;;;;;;;10.15;60.28;98256.25;5090291;28;20051;-72
2022/10/22 01:58:16;;;;;;;12.00;7.18;;;;;;;10.15;60.59;98262.56;5090960;28;20035;-72
2022/10/22 02:00:49;;;;;;;8.73;6.13;;;;;;;10.16;60.98;98258.69;5053369;28;20096;-72
2022/10/22 02:03:29;;;;;;;9.60;6.60;;;;;;;10.16;60.41;98266.94;5091397;28;20043;-72
2022/10/22 02:05:58;;;;;;;;;;;;;;;10.18;60.70;98266.63;5091589;28;20165;-72
2022/10/22 02:08:29;;;;;;;11.60;6.32;;;;;;;10.17;60.49;98264.97;5091500;28;20273;-72
2022/10/22 02:10:57;;;;;;;10.73;6.47;;;;;;;10.15;60.58;98265.28;5070281;28;20131;-72
2022/10/22 02:13:35;;;;;;;10.10;6.78;;;;;;;10.11;60.84;98267.81;5069928;28;20040;-73
2022/10/22 02:16:03;;;;;;;11.95;6.60;;;;;;;10.11;60.11;98270.53;5071464;28;20036;-72
2022/10/22 02:18:31;;;;;;;10.30;6.80;;;;;;;10.12;61.41;98269.44;5071958;28;20036;-72
2022/10/22 02:20:58;;;;;;;10.73;6.32;;;;;;;10.12;60.62;98266.69;5070578;28;20039;-71
2022/10/22 02:23:25;;;;;;;10.65;7.05;;;;;;;10.12;61.20;98268.63;5071364;28;20032;-72
2022/10/22 02:25:58;;;;;;;10.15;6.65;;;;;;;10.11;60.85;98256.84;5071116;28;20488;-72
2022/10/22 02:28:41;;;;;;;11.27;7.60;;;;;;;10.09;60.65;98266.47;5078695;28;20043;-72
2022/10/22 02:31:14;;;;;;;9.82;6.80;;;;;;;10.10;60.76;98281.81;5091386;28;20088;-72
2022/10/22 02:33:48;;;;;;;10.88;6.57;;;;;;;10.09;60.72;98289.19;5051486;28;20048;-72
2022/10/22 02:36:15;;;;;;;9.90;6.30;;;;;;;10.11;60.59;98284.25;5070859;28;20035;-72
2022/10/22 02:38:41;;;;;;;10.82;6.22;;;;;;;10.09;61.05;98283.72;5071269;28;20029;-71
2022/10/22 02:41:07;;;;;;;9.57;6.20;;;;;;;10.08;61.15;98293.06;5071597;28;20024;-72
2022/10/22 02:43:47;;;;;;;10.57;5.93;;;;;;;10.10;60.73;98298.25;5071365;28;20043;-72
2022/10/22 02:46:13;;;;;;;11.65;6.38;;;;;;;10.09;61.42;98285.66;5070814;28;20032;-72
2022/10/22 02:48:38;;;;;;;9.40;6.20;;;;;;;10.09;60.97;98297.44;5071416;28;20089;-71
2022/10/22 02:51:04;;;;;;;10.88;6.50;;;;;;;10.09;60.63;98293.88;5071105;28;20039;-72
2022/10/22 02:53:29;;;;;;;12.07;6.47;;;;;;;10.08;60.48;98306.75;5070967;28;20024;-71
2022/10/22 02:55:54;;;;;;;10.82;6.45;;;;;;;10.08;61.62;98312.22;5071127;28;20025;-72
2022/10/22 02:58:20;;;;;;;9.30;6.50;;;;;;;10.07;61.40;98315.28;5071019;28;20059;-72
2022/10/22 03:00:45;;;;;;;9.95;6.10;;;;;;;10.06;60.68;98317.19;5053346;28;20086;-72
2022/10/22 03:03:10;;;;;;;10.48;6.15;;;;;;;10.05;60.94;98303.81;5071241;28;20463;-72
2022/10/22 03:05:36;;;;;;;10.73;6.15;;;;;;;10.04;61.15;98297.50;5070619;28;20379;-72
2022/10/22 03:08:01;;;;;;;9.90;6.03;;;;;;;10.03;61.46;98304.09;5052985;28;20033;-71
2022/10/22 03:10:27;;;;;;;19.27;9.15;;;;;;;10.04;61.43;98296.69;5053002;28;20074;-71
2022/10/22 03:12:52;;;;;;;11.60;6.72;;;;;;;10.05;60.66;98304.59;5070964;28;20146;-71
2022/10/22 03:15:17;;;;;;;10.80;6.43;;;;;;;10.07;61.36;98296.09;5089596;28;20489;-71
2022/10/22 03:17:43;;;;;;;8.57;5.80;;;;;;;10.07;60.91;98285.16;5090530;28;20077;-71
2022/10/22 03:20:08;;;;;;;10.23;6.40;;;;;;;10.06;61.32;98280.78;5090917;28;20020;-71
2022/10/22 03:22:35;;;;;;;9.75;6.50;;;;;;;10.05;60.68;98265.44;5075396;28;20108;-71
2022/10/22 03:25:09;;;;;;;9.85;6.53;;;;;;;10.06;61.18;98267.88;5074970;28;20067;-71
2022/10/22 03:27:36;;;;;;;9.85;6.72;;;;;;;10.07;61.04;98274.19;5089373;28;20032;-71
2022/10/22 03:30:03;;;;;;;11.27;7.15;;;;;;;10.07;61.24;98265.97;5082583;28;20053;-72
2022/10/22 03:32:28;;;;;;;10.23;6.50;;;;;;;10.07;61.31;98277.72;5090465;28;20082;-71
2022/10/22 03:34:54;;;;;;;8.63;6.35;;;;;;;10.08;60.99;98275.81;5069076;28;20028;-71
2022/10/22 03:37:19;;;;;;;8.23;6.35;;;;;;;10.07;60.88;98287.88;5069995;28;20070;-71
2022/10/22 03:39:45;;;;;;;10.00;6.57;;;;;;;10.06;61.18;98276.09;5069848;28;20111;-71
2022/10/22 03:42:12;;;;;;;11.45;6.82;;;;;;;10.06;61.44;98280.78;5070034;28;20592;-71
2022/10/22 03:44:39;;;;;;;11.63;5.82;;;;;;;10.05;60.86;98288.16;5069499;28;20060;-71
2022/10/22 03:47:04;;;;;;;10.13;6.10;;;;;;;10.04;60.76;98288.47;5069629;28;20119;-71
2022/10/22 03:49:30;;;;;;;13.35;8.45;;;;;;;10.03;61.48;98292.31;5069685;28;20063;-71
2022/10/22 03:51:55;;;;;;;10.05;6.15;;;;;;;10.03;61.16;98290.38;5069728;28;20445;-71
2022/10/22 03:54:20;;;;;;;10.85;6.40;;;;;;;10.04;61.19;98296.69;5070444;28;20539;-72
2022/10/22 03:56:46;;;;;;;10.23;6.43;;;;;;;10.02;60.82;98287.97;5059730;28;20038;-71
2022/10/22 03:59:12;;;;;;;11.00;6.28;;;;;;;10.01;60.89;98289.06;5081394;28;20367;-71
2022/10/22 04:01:38;;;;;;;7.95;5.65;;;;;;;10.01;61.19;98300.03;5090054;28;20056;-71
2022/10/22 04:04:03;;;;;;;10.35;6.40;;;;;;;10.00;61.02;98301.94;5078529;28;20067;-71
2022/10/22 04:06:29;;;;;;;9.23;6.20;;;;;;;10.02;61.90;98307.13;5051208;28;20032;-71
2022/10/22 04:08:55;;;;;;;11.18;6.97;;;;;;;10.03;61.17;98306.03;5069316;28;20033;-71
2022/10/22 04:11:20;;;;;;;10.50;6.80;;;;;;;10.02;61.49;98299.72;5069627;28;20390;-70
2022/10/22 04:13:45;;;;;;;9.13;6.95;;;;;;;10.03;61.92;98290.38;5069075;28;20040;-71
2022/10/22 04:16:16;;;;;;;9.88;6.70;;;;;;;10.03;60.92;98284.91;5069732;28;20531;-71
2022/10/22 04:18:42;;;;;;;9.63;6.28;;;;;;;10.06;61.39;98291.75;5069338;28;20033;-71
2022/10/22 04:21:09;;;;;;;9.77;6.25;;;;;;;10.06;61.25;98299.97;5069366;28;20737;-71
2022/10/22 04:23:36;;;;;;;8.85;6.25;;;;;;;10.06;61.53;98281.56;5069302;28;20031;-71
2022/10/22 04:26:04;;;;;;;8.15;5.93;;;;;;;10.08;61.40;98270.34;5068717;28;20082;-71
2022/10/22 04:28:30;;;;;;;11.10;6.32;;;;;;;10.09;61.10;98264.53;5077520;28;20445;-70
2022/10/22 04:30:55;;;;;;;11.27;6.68;;;;;;;10.10;61.47;98257.94;5089648;28;20063;-71
2022/10/22 04:33:21;;;;;;;12.82;7.55;;;;;;;10.10;60.91;98243.44;5089305;28;20051;-71
2022/10/22 04:35:46;;;;;;;13.50;7.95;;;;;;;10.08;61.36;98243.72;5089105;28;20028;-71
2022/10/22 04:38:12;;;;;;;8.10;6.18;;;;;;;10.06;60.97;98240.47;5089397;28;20076;-71
2022/10/22 04:40:37;;;;;;;10.45;6.50;;;;;;;10.06;61.49;98232.25;5089010;28;20028;-71
2022/10/22 04:43:02;;;;;;;9.18;5.70;;;;;;;10.05;61.33;98238.03;5088714;28;20020;-71
2022/10/22 04:45:28;;;;;;;11.20;6.65;;;;;;;10.05;61.03;98243.53;5088806;28;20534;-71
2022/10/22 04:47:53;;;;;;;46.08;21.25;;;;;;;10.05;61.00;98243.53;5089062;28;20452;-71
2022/10/22 04:50:19;;;;;;;29.27;14.95;;;;;;;10.04;61.79;98252.84;5089226;28;20052;-71
2022/10/22 04:52:44;;;;;;;15.13;7.65;;;;;;;10.03;60.91;98254.78;5089006;28;20024;-71
2022/10/22 04:55:10;;;;;;;11.02;6.80;;;;;;;10.02;60.98;98252.34;5088811;28;20052;-71
2022/10/22 04:57:35;;;;;;;9.70;6.97;;;;;;;10.02;60.84;98255.06;5089136;28;20085;-71
2022/10/22 05:00:00;;;;;;;14.40;7.70;;;;;;;10.01;60.98;98242.50;5088842;28;20035;-71
2022/10/22 05:02:26;;;;;;;14.32;8.23;;;;;;;9.99;61.85;98251.00;5089200;28;20377;-71
2022/10/22 05:04:51;;;;;;;20.20;10.95;;;;;;;9.96;61.67;98259.84;5088733;28;20028;-71
2022/10/22 05:07:17;;;;;;;36.00;14.40;;;;;;;9.96;61.45;98265.31;5088831;28;20089;-71
2022/10/22 05:09:42;;;;;;;37.50;15.23;;;;;;;9.94;61.30;98270.28;5081140;28;20021;-71
2022/10/22 05:12:08;;;;;;;31.88;14.00;;;;;;;9.94;61.48;98271.06;5069067;28;20056;-71
2022/10/22 05:14:33;;;;;;;51.47;20.70;;;;;;;9.95;61.20;98274.66;5068928;28;20036;-71
2022/10/22 05:16:58;;;;;;;33.05;14.73;;;;;;;9.93;61.02;98277.66;5068717;28;20056;-72
2022/10/22 05:19:26;;;;;;;12.77;8.38;;;;;;;9.91;61.36;98274.41;5069218;28;20061;-71
2022/10/22 05:21:54;;;;;;;13.27;8.80;;;;;;;9.92;61.61;98261.53;5068920;28;20029;-70
2022/10/22 05:24:20;;;;;;;12.90;8.23;;;;;;;9.89;61.44;98251.97;5068950;28;20082;-71
2022/10/22 05:26:51;;;;;;;13.02;8.23;;;;;;;9.90;61.51;98241.84;5081619;28;20028;-71
2022/10/22 05:29:17;;;;;;;13.30;8.65;;;;;;;9.91;61.69;98244.28;5072912;28;20025;-71
2022/10/22 05:31:42;;;;;;;23.17;12.38;;;;;;;9.93;61.81;98239.31;5068961;28;20119;-71
2022/10/22 05:34:07;;;;;;;14.13;9.20;;;;;;;9.96;61.56;98248.88;5068998;28;20050;-71
2022/10/22 05:36:33;;;;;;;17.77;13.35;;;;;;;9.95;61.72;98250.78;5068813;28;21249;-70
2022/10/22 05:38:58;;;;;;;15.55;11.80;;;;;;;9.98;61.34;98263.09;5068563;28;20028;-71
2022/10/22 05:41:25;;;;;;;14.98;9.10;;;;;;;9.99;61.13;98267.44;5068772;28;20505;-71
2022/10/22 05:43:54;;;;;;;14.57;10.55;;;;;;;10.03;61.22;98267.66;5068349;28;20029;-71
2022/10/22 05:46:21;;;;;;;15.73;10.30;;;;;;;10.04;61.45;98269.28;5068352;28;20436;-71
2022/10/22 05:48:51;;;;;;;12.23;8.30;;;;;;;10.06;61.77;98258.84;5068300;28;20131;-71
2022/10/22 05:51:17;;;;;;;17.13;8.10;;;;;;;10.08;60.94;98278.56;5068873;28;20082;-71
2022/10/22 05:53:42;;;;;;;12.93;8.68;;;;;;;10.08;61.56;98289.50;5068538;28;20036;-71
2022/10/22 05:56:11;;;;;;;16.65;11.05;;;;;;;10.11;62.00;98291.66;5069685;28;20028;-72
2022/10/22 05:58:37;;;;;;;14.57;9.23;;;;;;;10.14;61.69;98296.56;5071947;28;20025;-71
2022/10/22 06:01:11;;;;;;;15.40;10.07;;;;;;;10.14;61.38;98310.25;5072068;28;20027;-72
2022/10/22 06:03:36;;;;;;;26.00;16.98;;;;;;;10.16;61.89;98297.06;5071621;28;20024;-71
2022/10/22 06:06:12;;;;;;;16.30;10.68;;;;;;;10.18;61.50;98302.25;5072081;28;20104;-72
2022/10/22 06:08:38;;;;;;;14.68;9.48;;;;;;;10.19;61.76;98303.88;5071904;28;20466;-71
2022/10/22 06:11:04;;;;;;;21.38;14.30;;;;;;;10.21;60.94;98296.16;5071569;28;20034;-73
2022/10/22 06:13:31;;;;;;;16.08;11.45;;;;;;;10.23;61.88;98299.44;5072012;28;20024;-71
2022/10/22 06:15:57;;;;;;;18.42;11.20;;;;;;;10.28;61.76;98316.59;5071740;28;20458;-71
2022/10/22 06:18:22;;;;;;;20.05;12.85;;;;;;;10.33;61.13;98318.47;5070113;28;20032;-71
2022/10/22 06:20:48;;;;;;;14.07;10.90;;;;;;;10.38;61.86;98320.28;5071254;28;20493;-72
2022/10/22 06:23:14;;;;;;;14.35;8.25;;;;;;;10.43;61.03;98315.56;5071989;28;20100;-72
2022/10/22 06:25:39;;;;;;;12.77;8.32;;;;;;;10.49;61.18;98315.50;5052856;28;20107;-72
2022/10/22 06:28:05;;;;;;;12.38;7.80;;;;;;;10.50;60.99;98309.72;5075421;28;20104;-72
2022/10/22 06:30:30;;;;;;;13.30;8.20;;;;;;;10.55;61.20;98322.53;5091644;28;20052;-72
2022/10/22 06:32:55;;;;;;;15.40;8.35;;;;;;;10.60;61.02;98325.19;5074724;28;20048;-72
2022/10/22 06:35:21;;;;;;;13.32;8.98;;;;;;;10.66;61.38;98310.28;5053206;28;20020;-71
2022/10/22 06:37:46;;;;;;;12.30;9.02;;;;;;;10.70;61.49;98305.81;5071578;28;20028;-72
2022/10/22 06:40:12;;;;;;;12.52;7.95;;;;;;;10.77;60.60;98310.91;5071070;28;20031;-71
2022/10/22 06:42:38;;;;;;;11.80;7.93;;;;;;;10.81;61.09;98316.59;5075341;28;20081;-71
2022/10/22 06:45:03;;;;;;;14.63;8.38;;;;;;;10.86;61.18;98328.31;5090975;28;20024;-72
2022/10/22 06:47:32;;;;;;;15.65;8.30;;;;;;;10.92;61.17;98320.78;5075081;28;20032;-71
2022/10/22 06:49:57;;;;;;;11.85;8.05;;;;;;;10.99;61.17;98314.94;5070897;28;20401;-71
2022/10/22 06:52:23;;;;;;;11.50;8.23;;;;;;;11.07;61.04;98327.13;5071242;28;20039;-73
2022/10/22 06:54:48;;;;;;;12.80;9.25;;;;;;;11.13;61.10;98347.88;5070375;28;20478;-72
2022/10/22 06:57:14;;;;;;;15.43;8.77;;;;;;;11.17;61.14;98346.97;5070695;28;20036;-71
2022/10/22 06:59:39;;;;;;;12.68;8.13;;;;;;;11.22;61.19;98343.28;5071227;28;20028;-72
2022/10/22 07:02:05;;;;;;;11.90;7.90;;;;;;;11.28;60.98;98342.09;5071391;28;20056;-71
2022/10/22 07:04:30;;;;;;;13.07;7.78;;;;;;;11.32;61.22;98329.38;5070945;28;20075;-72
2022/10/22 07:06:56;;;;;;;11.70;7.45;;;;;;;11.37;60.91;98333.16;5070284;28;20060;-71
2022/10/22 07:09:21;;;;;;;13.20;8.60;;;;;;;11.40;60.88;98335.28;5071060;28;20504;-72
2022/10/22 07:11:47;;;;;;;11.90;7.90;;;;;;;11.44;60.46;98341.78;5070278;28;20107;-72
2022/10/22 07:14:13;;;;;;;22.70;11.82;;;;;;;11.48;61.13;98345.56;5070720;28;20028;-71
2022/10/22 07:16:41;;;;;;;14.15;9.07;;;;;;;11.51;60.89;98338.63;5070762;28;20025;-72
2022/10/22 07:19:07;;;;;;;12.38;8.25;;;;;;;11.55;60.40;98336.91;5070552;28;20068;-71
2022/10/22 07:21:33;;;;;;;14.20;8.57;;;;;;;11.59;60.80;98337.94;5070491;28;20094;-72
2022/10/22 07:23:58;;;;;;;13.90;8.30;;;;;;;11.60;60.35;98334.06;5070405;28;20111;-72
2022/10/22 07:26:27;;;;;;;13.57;8.95;;;;;;;11.60;60.17;98326.66;5069941;28;20086;-71
2022/10/22 07:28:52;;;;;;;14.70;9.82;;;;;;;11.65;60.38;98335.88;5076822;28;20016;-71
2022/10/22 07:31:18;;;;;;;14.40;8.82;;;;;;;11.68;60.63;98325.09;5077518;28;20485;-72
2022/10/22 07:33:44;;;;;;;14.18;9.25;;;;;;;11.71;60.19;98330.00;5070448;28;20127;-72
2022/10/22 07:36:16;;;;;;;16.73;9.20;;;;;;;11.77;60.42;98336.19;5069953;28;20138;-72
2022/10/22 07:38:43;;;;;;;14.70;8.70;;;;;;;11.83;60.43;98345.94;5070095;28;20028;-72
2022/10/22 07:41:08;;;;;;;14.38;8.95;;;;;;;11.89;60.42;98357.63;5069702;28;20348;-72
2022/10/22 07:43:34;;;;;;;14.93;10.18;;;;;;;11.90;59.99;98349.09;5069008;28;20522;-71
2022/10/22 07:46:01;;;;;;;14.20;8.80;;;;;;;11.89;60.19;98330.97;5069719;28;20537;-72
2022/10/22 07:48:27;;;;;;;15.60;9.52;;;;;;;11.92;60.05;98318.53;5070012;28;20154;-72
2022/10/22 07:50:52;;;;;;;14.50;8.15;;;;;;;11.95;60.61;98315.19;5087201;28;20111;-71
2022/10/22 07:53:18;;;;;;;15.02;9.05;;;;;;;12.01;59.85;98308.47;5089707;28;20023;-72
2022/10/22 07:55:47;;;;;;;17.13;9.35;;;;;;;12.05;60.50;98315.00;5089430;28;20024;-72
2022/10/22 07:58:12;;;;;;;20.35;10.40;;;;;;;12.12;59.39;98320.06;5089978;28;20031;-72
2022/10/22 08:00:37;;;;;;;14.82;8.60;;;;;;;12.16;59.93;98329.31;5072073;28;20024;-71
2022/10/22 08:03:03;;;;;;;14.93;9.38;;;;;;;12.17;59.82;98319.94;5089827;28;20040;-72
2022/10/22 08:05:28;;;;;;;14.02;9.10;;;;;;;12.19;60.37;98333.41;5089587;28;20475;-72
2022/10/22 08:07:53;;;;;;;14.05;8.65;;;;;;;12.21;60.11;98336.66;5070418;28;20043;-72
2022/10/22 08:10:19;;;;;;;15.10;9.05;;;;;;;12.22;60.23;98343.78;5070179;28;20044;-72
2022/10/22 08:12:44;;;;;;;17.30;10.05;;;;;;;12.25;60.03;98332.13;5069444;28;20025;-73
2022/10/22 08:15:10;;;;;;;18.55;10.93;;;;;;;12.28;60.31;98336.22;5069640;28;20397;-73
2022/10/22 08:17:35;;;;;;;13.70;9.48;;;;;;;12.29;60.04;98341.38;5069314;28;20078;-73
2022/10/22 08:20:00;;;;;;;16.10;9.35;;;;;;;12.31;60.11;98339.13;5069696;28;20032;-73
2022/10/22 08:22:26;;;;;;;14.77;8.88;;;;;;;12.31;59.77;98336.38;5069741;28;20471;-73
2022/10/22 08:24:52;;;;;;;15.77;9.73;;;;;;;12.33;60.36;98327.84;5069292;28;20030;-73
2022/10/22 08:27:17;;;;;;;17.52;9.65;;;;;;;12.35;59.62;98337.38;5069049;28;20494;-73
2022/10/22 08:29:43;;;;;;;21.85;10.05;;;;;;;12.34;59.89;98357.78;5086322;28;20535;-73
2022/10/22 08:32:08;;;;;;;17.77;9.25;;;;;;;12.35;59.70;98359.41;5071529;28;20036;-73
2022/10/22 08:34:33;;;;;;;19.13;10.73;;;;;;;12.34;59.64;98362.47;5083098;28;20039;-73
2022/10/22 08:36:59;;;;;;;19.20;10.27;;;;;;;12.33;60.06;98360.84;5070402;28;20082;-73
2022/10/22 08:39:24;;;;;;;17.50;9.85;;;;;;;12.35;60.19;98353.91;5068606;28;20393;-72
2022/10/22 08:42:16;;;;;;;15.18;9.02;;;;;;;12.38;59.95;98357.97;5088084;28;20028;-73
2022/10/22 08:45:17;;;;;;;14.70;8.70;;;;;;;12.40;59.92;98360.41;5085571;28;20124;-72
2022/10/22 08:48:04;;;;;;;15.68;9.40;;;;;;;12.43;59.94;98354.28;5067598;28;20549;-72
2022/10/22 08:50:35;;;;;;;14.35;9.88;;;;;;;12.44;59.69;98337.44;5071013;28;20048;-72
2022/10/22 08:53:06;;;;;;;14.93;9.85;;;;;;;12.45;60.16;98336.34;5054657;28;20029;-73
2022/10/22 08:55:34;;;;;;;22.27;12.77;;;;;;;12.48;60.01;98330.22;5069474;28;20094;-73
2022/10/22 08:58:14;;;;;;;15.38;9.98;;;;;;;12.53;59.97;98343.03;5069352;28;20025;-73
2022/10/22 09:00:52;;;;;;;15.35;9.25;;;;;;;12.58;60.23;98345.69;5071378;28;20028;-73
2022/10/22 09:03:42;;;;;;;18.60;10.38;;;;;;;12.63;60.24;98345.53;5072760;28;20047;-73
2022/10/22 09:06:13;;;;;;;15.60;9.93;;;;;;;12.68;60.21;98352.03;5070850;28;20019;-73
2022/10/22 09:08:42;;;;;;;14.50;9.10;;;;;;;12.74;59.83;98351.63;5085875;28;20564;-73
2022/10/22 09:11:29;;;;;;;19.20;10.88;;;;;;;12.76;59.99;98357.63;5087872;28;20035;-73
2022/10/22 09:13:56;;;;;;;17.27;10.60;;;;;;;12.80;60.07;98366.03;5088247;28;20388;-73
2022/10/22 09:16:59;;;;;;;16.77;9.65;;;;;;;12.85;59.99;98370.59;5087805;28;20036;-72
2022/10/22 09:19:42;;;;;;;19.52;11.10;;;;;;;12.90;59.85;98370.47;5087872;28;20036;-72
2022/10/22 09:22:38;;;;;;;17.35;10.05;;;;;;;12.89;59.76;98372.44;5087426;28;20065;-73
2022/10/22 09:25:19;;;;;;;16.90;10.25;;;;;;;12.90;59.75;98374.06;5087038;28;20123;-72
2022/10/22 09:27:44;;;;;;;17.75;9.35;;;;;;;12.95;59.67;98371.19;5084629;28;20024;-72
2022/10/22 09:30:15;;;;;;;16.42;9.48;;;;;;;13.02;59.50;98372.69;5069833;28;20023;-72
2022/10/22 09:32:41;;;;;;;15.80;9.45;;;;;;;13.05;59.70;98370.09;5071246;28;20056;-72
2022/10/22 09:35:10;;;;;;;18.25;9.73;;;;;;;13.06;59.57;98374.47;5071395;28;20091;-71
2022/10/22 09:37:45;;;;;;;16.55;10.48;;;;;;;13.10;59.84;98371.91;5070107;28;20037;-70
2022/10/22 09:40:13;;;;;;;28.88;16.10;;;;;;;13.14;59.61;98375.66;5071555;28;20547;-71
2022/10/22 09:42:39;;;;;;;22.13;12.15;;;;;;;13.18;59.57;98370.34;5071585;28;20161;-71
2022/10/22 09:45:05;;;;;;;15.00;10.63;;;;;;;13.20;59.45;98374.38;5071456;28;20493;-72
2022/10/22 09:47:30;;;;;;;17.85;10.40;;;;;;;13.23;59.30;98390.28;5071243;28;20111;-72
2022/10/22 09:50:08;;;;;;;16.38;10.23;;;;;;;13.25;59.54;98381.69;5071318;28;20029;-72
2022/10/22 09:52:34;;;;;;;17.92;10.20;;;;;;;13.28;59.52;98383.81;5071493;28;20052;-71
2022/10/22 09:55:13;;;;;;;19.75;10.32;;;;;;;13.33;59.63;98374.63;5071182;28;20052;-72
2022/10/22 09:57:38;;;;;;;17.98;10.73;;;;;;;13.37;59.31;98379.16;5072112;28;20024;-71
2022/10/22 10:00:08;;;;;;;16.70;10.38;;;;;;;13.40;59.67;98386.00;5080813;28;20488;-71
2022/10/22 10:02:33;;;;;;;16.25;10.25;;;;;;;13.43;59.44;98376.31;5091092;28;20028;-71
2022/10/22 10:05:02;;;;;;;17.48;11.02;;;;;;;13.44;59.67;98367.75;5058285;28;20031;-71
2022/10/22 10:07:32;;;;;;;16.60;10.93;;;;;;;13.42;59.24;98367.25;5085222;28;20489;-71
2022/10/22 10:09:58;;;;;;;20.48;11.48;;;;;;;13.39;59.52;98357.63;5086550;28;20032;-71
2022/10/22 10:12:42;;;;;;;16.35;10.50;;;;;;;13.40;59.43;98359.25;5087157;28;20123;-70
2022/10/22 10:15:37;;;;;;;16.38;9.88;;;;;;;13.45;59.64;98369.34;5069396;28;20701;-74
2022/10/22 10:18:24;;;;;;;15.20;9.27;;;;;;;13.48;59.79;98368.72;5064957;28;20044;-72
2022/10/22 10:21:05;;;;;;;18.70;12.32;;;;;;;13.51;59.84;98365.31;5071970;28;20661;-78
2022/10/22 10:23:54;;;;;;;24.17;15.10;;;;;;;13.49;59.98;98361.28;5089375;28;20024;-75
2022/10/22 10:26:22;;;;;;;18.08;11.57;;;;;;;13.50;60.15;98349.13;5081323;28;20024;-76
2022/10/22 10:28:50;;;;;;;17.88;11.10;;;;;;;13.50;60.11;98357.38;5078118;28;20111;-74
2022/10/22 10:31:20;;;;;;;15.07;10.27;;;;;;;13.51;60.29;98361.75;5083909;28;20035;-68
2022/10/22 10:34:12;;;;;;;18.60;10.90;;;;;;;13.49;60.22;98362.06;5070595;28;20398;-68
2022/10/22 10:36:43;;;;;;;13.13;9.68;;;;;;;13.53;60.51;98360.31;5069130;28;20111;-68
2022/10/22 10:39:18;;;;;;;19.05;12.93;;;;;;;13.53;60.29;98362.25;5070542;28;20032;-68
2022/10/22 10:42:14;;;;;;;18.85;13.20;;;;;;;13.54;60.51;98361.13;5069366;28;20025;-68
2022/10/22 10:44:42;;;;;;;20.13;12.95;;;;;;;13.57;60.82;98367.94;5069807;28;20107;-68
2022/10/22 10:47:43;;;;;;;16.90;12.15;;;;;;;13.53;60.65;98362.25;5052945;28;20485;-68
2022/10/22 10:50:43;;;;;;;16.40;11.82;;;;;;;13.52;60.77;98364.19;5036338;28;20498;-68
2022/10/22 10:53:24;;;;;;;21.35;12.82;;;;;;;13.56;60.66;98375.41;5058215;28;20767;-68
2022/10/22 10:56:03;;;;;;;23.65;15.82;;;;;;;13.53;61.00;98365.81;5067054;28;20028;-69
2022/10/22 10:58:31;;;;;;;19.95;13.02;;;;;;;13.57;61.11;98351.41;5069859;28;20039;-67
2022/10/22 11:01:14;;;;;;;38.35;26.25;;;;;;;13.54;60.70;98344.59;5069970;28;20111;-67
2022/10/22 11:03:59;;;;;;;25.23;15.75;;;;;;;13.52;60.86;98349.63;5051905;28;20037;-68
2022/10/22 11:06:26;;;;;;;18.25;13.48;;;;;;;13.52;61.17;98346.84;5068318;28;20036;-67
2022/10/22 11:08:58;;;;;;;18.77;12.85;;;;;;;13.50;61.16;98338.09;5066674;28;20036;-66
2022/10/22 11:11:36;;;;;;;19.88;12.82;;;;;;;13.46;61.13;98340.66;5068962;28;20028;-69
2022/10/22 11:14:40;;;;;;;19.92;12.55;;;;;;;13.44;61.71;98323.66;5064471;28;20386;-67
2022/10/22 11:17:13;;;;;;;20.13;12.27;;;;;;;13.41;61.56;98324.31;5068852;28;20037;-67
2022/10/22 11:19:54;;;;;;;20.40;12.43;;;;;;;13.32;61.75;98332.47;5069170;28;20028;-69
2022/10/22 11:22:44;;;;;;;24.00;13.15;;;;;;;13.26;61.90;98322.72;5069181;28;20047;-69
2022/10/22 11:25:12;;;;;;;20.00;12.27;;;;;;;13.22;62.38;98314.31;5068857;28;20362;-68
2022/10/22 11:27:55;;;;;;;19.00;11.80;;;;;;;13.12;62.01;98319.28;5071619;28;20047;-69
2022/10/22 11:30:23;;;;;;;27.27;16.02;;;;;;;13.06;62.26;98329.59;5090176;28;20130;-69
2022/10/22 11:32:56;;;;;;;28.88;16.17;;;;;;;13.00;62.17;98336.38;5089121;28;20055;-69
2022/10/22 11:35:33;;;;;;;32.25;16.50;;;;;;;13.00;62.25;98337.19;5089363;28;20477;-69